Jamestown, Virginia
Current Conditions -  °F | °C
As of 3:15 PM on Wednesday 26 Nov 2014 (Local Time) from KJGG Reporting Station
Overcast Overcast  
Wind Chill: 37°   Ceiling: 1100
Heat Index: 45°   Visibility: 0.75mi
Dew Point: 43°   Wind: 20mph
Humidity: 93%   Direction: 310°NW
Pressure: 29.88"   Gusts: 25mph
Location:  37.21°N, 76.77°W
Report Text: KJGG 262015Z AUTO 31017G22KT 3/4SM OVC011 07/06 A2988 RMK AO1 P0002
Loading
Personal Weather Stations






























Interactive Weather Map New forecast layout! Learn more

10-Day Weather Forecast

Advertisements
Track Severe Weather on mobile